Francis Creek, Wisconsin
Current Conditions -  °F | °C
As of 1:56 AM on Thursday 23 Oct 2014 (Local Time) from KMTW Reporting Station
Clear Clear  
Wind Chill: 38°   Ceiling: Unl
Heat Index: 38°   Visibility: 10mi
Dew Point: 37°   Wind: 3mph
Humidity: 97%   Direction: 200°SSW
Pressure: 30.23"   Gusts: NA
Location:  44.2°N, 87.72°W
Report Text: KMTW 230656Z AUTO 20003KT 10SM CLR 03/03 A3023 RMK AO2 SLP266 T00330028
Loading
Personal Weather Stations






























Interactive Weather Map
Tropical Storm Tracking
New forecast layout! Learn more

10-Day Weather Forecast

Advertisements
Track Severe Weather on mobile